This is the latest recevied weather packets stored in our database for station/object VK4UCZ-13. If no packets are shown the sender has not sent any weather packets the latest 10 day(s).
| Time | Temp. | Humidity | Pressure | Rain* | Wind** | Luminosity | Snow |
|---|---|---|---|---|---|---|---|
| 1788467016 | 12.78° C | 97% | 1009.6 hPa | 0 mm | - | - | - |
| 1788466416 | 12.78° C | 97% | 1009.6 hPa | 0 mm | - | - | - |
| 1788465816 | 13.33° C | 97% | 1009.6 hPa | 0 mm | - | - | - |
| 1788465216 | 13.33° C | 96% | 1009.6 hPa | 0 mm | - | - | - |
| 1788464616 | 12.78° C | 96% | 1009.5 hPa | 0 mm | - | - | - |
| 1788464016 | 12.78° C | 95% | 1009.3 hPa | 0 mm | - | - | - |
| 1788450816 | 16.11° C | 86% | 1008.6 hPa | 0 mm | - | - | - |
| 1788450216 | 16.11° C | 87% | 1008.4 hPa | 0 mm | - | - | - |
| 1788449616 | 16.67° C | 86% | 1008.6 hPa | 0 mm | - | - | - |
| 1788449016 | 16.11° C | 86% | 1008.6 hPa | 0 mm | - | - | - |
| 1788448416 | 15.56° C | 93% | 1008.6 hPa | 0 mm | - | - | - |
| 1788447816 | 15.56° C | 93% | 1008.5 hPa | 0 mm | - | - | - |
| 1788447216 | 15.56° C | 92% | 1008.7 hPa | 0 mm | - | - | - |
| 1788446616 | 16.11° C | 92% | 1008.6 hPa | 0 mm | - | - | - |
| 1788446016 | 16.11° C | 92% | 1008.5 hPa | 0 mm | - | - | - |
| 1788445416 | 15.56° C | 93% | 1008.4 hPa | 0 mm | - | - | - |
| 1788444816 | 16.11° C | 94% | 1008.8 hPa | 0 mm | - | - | - |
| 1788444216 | 16.11° C | 94% | 1008.7 hPa | 0 mm | - | - | - |
| 1788443616 | 16.11° C | 95% | 1008.6 hPa | 0 mm | - | - | - |
| 1788443016 | 16.11° C | 95% | 1008.5 hPa | 0 mm | - | - | - |
| 1788442416 | 16.11° C | 94% | 1008.5 hPa | 0 mm | - | - | - |
| 1788441816 | 16.11° C | 93% | 1008.4 hPa | 0 mm | - | - | - |
| 1788441216 | 16.67° C | 92% | 1008.4 hPa | 0 mm | - | - | - |
| 1788440616 | 16.67° C | 91% | 1008.6 hPa | 0 mm | - | - | - |
| 1788440016 | 17.22° C | 90% | 1008.6 hPa | 0 mm | - | - | - |
* Rain latest hour (hover to see other rain measurements)
** Current wind speed in m/s (hover to see current wind gust speed)